Terminal Aerodrome Forecast
Issued by NWS

Home | Current Version | Previous Version | Text Only | Print | Product List | Glossary On
Versions: 1 2 3 4 5 6 7 8 9 10 11 12 13
000
FTUS43 KOAX 031736
TAFSNY
TAF
KSNY 031736Z 0318/0418 36012G20KT P6SM SCT150
     FM032100 04012G20KT P6SM SCT070 BKN100
     FM040300 05012KT P6SM BKN070
     FM040800 07008KT P6SM -SHRA SCT025 BKN040
     FM041300 05010KT 5SM -SHRA SCT012 BKN020=

USA.gov is the U.S. government's official web portal to all federal, state and local government web resources and services.